createdAt,value
2018-07-10T00:02:30.112Z,1.70
2018-07-10T00:07:12.126Z,1.90
2018-07-10T00:11:55.593Z,2.47
2018-07-10T00:14:24.110Z,1.63
2018-07-10T00:16:53.420Z,2.10
2018-07-10T00:19:22.459Z,2.10
2018-07-10T00:21:51.038Z,1.90
2018-07-10T00:24:20.523Z,2.27
2018-07-10T00:26:49.471Z,2.23
2018-07-10T00:29:18.693Z,2.60
2018-07-10T00:31:47.378Z,1.80
2018-07-10T00:34:15.974Z,2.43
2018-07-10T00:36:45.067Z,1.80
2018-07-10T00:39:13.597Z,1.60
2018-07-10T00:41:42.714Z,1.70
2018-07-10T00:44:11.285Z,2.40
2018-07-10T00:46:42.111Z,2.10
2018-07-10T00:49:10.687Z,2.20
2018-07-10T00:51:40.631Z,2.20
2018-07-10T00:54:09.562Z,2.40
2018-07-10T00:56:38.826Z,2.30
2018-07-10T00:59:07.721Z,2.00
2018-07-10T01:01:37.422Z,2.20
2018-07-10T01:04:06.271Z,2.17
2018-07-10T01:06:34.889Z,2.10
2018-07-10T01:09:05.049Z,1.90
2018-07-10T01:11:34.191Z,2.33
2018-07-10T01:14:03.139Z,2.50
2018-07-10T01:16:35.618Z,2.10
2018-07-10T01:19:12.271Z,1.70
2018-07-10T01:21:41.506Z,2.30
2018-07-10T01:24:10.085Z,2.33
2018-07-10T01:26:41.468Z,2.43
2018-07-10T01:29:17.271Z,2.77
2018-07-10T01:31:46.581Z,1.80
2018-07-10T01:34:15.649Z,2.03
2018-07-10T01:36:44.654Z,1.63
2018-07-10T01:39:13.189Z,1.70
2018-07-10T01:41:42.015Z,2.20
2018-07-10T01:44:10.535Z,1.80
2018-07-10T01:46:39.018Z,2.40
2018-07-10T01:49:08.143Z,2.00
2018-07-10T01:51:36.728Z,1.70
2018-07-10T01:54:05.605Z,2.20
2018-07-10T01:56:34.417Z,2.93
2018-07-10T01:59:03.189Z,2.30
2018-07-10T02:01:32.811Z,1.67
2018-07-10T02:04:02.164Z,2.43
2018-07-10T02:06:30.968Z,2.20
2018-07-10T02:09:00.072Z,2.10
2018-07-10T02:11:28.650Z,2.00
2018-07-10T02:13:57.239Z,2.70
2018-07-10T02:16:25.853Z,1.60
2018-07-10T02:18:54.590Z,2.10
2018-07-10T02:21:23.145Z,1.93
2018-07-10T02:23:52.036Z,2.07
2018-07-10T02:26:26.375Z,2.30
2018-07-10T02:28:56.176Z,2.53
2018-07-10T02:31:24.891Z,1.90
2018-07-10T02:33:53.989Z,1.90
2018-07-10T02:36:23.771Z,1.90
2018-07-10T02:38:56.672Z,2.17
2018-07-10T02:41:25.778Z,2.43
2018-07-10T02:44:03.201Z,1.87
2018-07-10T02:46:34.082Z,1.83
2018-07-10T02:49:08.714Z,3.47
2018-07-10T02:51:37.842Z,2.40
2018-07-10T02:54:06.381Z,1.93
2018-07-10T02:56:34.998Z,2.00
2018-07-10T02:59:04.437Z,2.43
2018-07-10T03:01:32.966Z,2.70
2018-07-10T03:04:01.878Z,1.90
2018-07-10T03:06:33.017Z,1.77
2018-07-10T03:09:01.582Z,2.20
2018-07-10T03:11:32.031Z,1.77
2018-07-10T03:14:00.596Z,1.83
2018-07-10T03:16:29.122Z,1.73
2018-07-10T03:18:57.839Z,2.07
2018-07-10T03:21:26.398Z,1.93
2018-07-10T03:23:54.902Z,2.07
2018-07-10T03:26:23.431Z,1.83
2018-07-10T03:28:52.330Z,1.80
2018-07-10T03:31:20.946Z,2.13
2018-07-10T03:33:49.700Z,2.50
2018-07-10T03:36:18.391Z,2.33
2018-07-10T03:38:46.954Z,2.23
2018-07-10T03:41:15.517Z,1.90
2018-07-10T03:43:44.137Z,2.60
2018-07-10T03:46:12.773Z,1.73
2018-07-10T03:48:41.564Z,2.23
2018-07-10T03:51:11.005Z,2.37
2018-07-10T03:53:39.742Z,2.67
2018-07-10T03:56:08.318Z,2.27
2018-07-10T03:58:37.287Z,1.60
2018-07-10T04:01:06.361Z,2.33
2018-07-10T04:03:35.017Z,1.87
2018-07-10T04:06:05.394Z,3.17
2018-07-10T04:08:35.382Z,2.20
2018-07-10T04:11:03.930Z,2.20
2018-07-10T04:13:32.622Z,2.60
2018-07-10T04:16:02.323Z,2.90
2018-07-10T04:18:32.695Z,2.00
2018-07-10T04:21:13.585Z,2.30
2018-07-10T04:23:43.736Z,2.30
2018-07-10T04:26:20.938Z,2.00
2018-07-10T04:29:30.376Z,2.10
2018-07-10T04:32:00.864Z,2.23
2018-07-10T04:34:33.632Z,2.13
2018-07-10T04:37:16.826Z,2.20
2018-07-10T04:39:45.819Z,2.70
2018-07-10T04:42:32.807Z,2.93
2018-07-10T04:45:08.334Z,2.73
2018-07-10T04:47:48.603Z,3.13
2018-07-10T04:50:27.481Z,3.80
2018-07-10T04:53:05.486Z,3.63
2018-07-10T04:55:38.570Z,4.27
2018-07-10T04:58:22.239Z,3.17
2018-07-10T05:01:10.125Z,4.10
2018-07-10T05:03:38.681Z,4.70
2018-07-10T05:06:08.332Z,5.03
2018-07-10T05:08:37.182Z,5.17
2018-07-10T05:11:05.729Z,5.07
2018-07-10T05:13:34.717Z,5.23
2018-07-10T05:16:04.703Z,5.33
2018-07-10T05:18:34.373Z,5.90
2018-07-10T05:21:09.993Z,5.60
2018-07-10T05:23:38.659Z,4.83
2018-07-10T05:26:07.258Z,5.27
2018-07-10T05:28:35.828Z,4.80
2018-07-10T05:31:04.540Z,5.07
2018-07-10T05:33:34.332Z,5.07
2018-07-10T05:36:03.669Z,4.80
2018-07-10T05:38:38.930Z,5.87
2018-07-10T05:41:08.147Z,5.00
2018-07-10T05:43:46.818Z,4.63
2018-07-10T05:46:16.679Z,5.00
2018-07-10T05:49:02.395Z,4.30
2018-07-10T05:51:34.864Z,5.77
2018-07-10T05:54:06.071Z,5.30
2018-07-10T05:56:34.627Z,5.67
2018-07-10T05:59:04.838Z,5.60
2018-07-10T06:01:34.058Z,5.37
2018-07-10T06:04:03.155Z,6.00
2018-07-10T06:06:31.741Z,5.53
2018-07-10T06:09:00.288Z,5.47
2018-07-10T06:11:28.866Z,6.93
2018-07-10T06:13:57.522Z,5.80
2018-07-10T06:16:26.091Z,4.73
2018-07-10T06:18:56.641Z,6.30
2018-07-10T06:21:29.882Z,4.80
2018-07-10T06:23:58.877Z,5.60
2018-07-10T06:26:27.423Z,5.53
2018-07-10T06:29:01.144Z,6.60
2018-07-10T06:31:33.541Z,5.43
2018-07-10T06:34:04.454Z,5.90
2018-07-10T06:36:36.666Z,6.17
2018-07-10T06:39:11.119Z,6.57
2018-07-10T06:41:50.338Z,5.90
2018-07-10T06:44:19.829Z,6.33
2018-07-10T06:46:55.222Z,5.90
2018-07-10T06:49:34.230Z,7.17
2018-07-10T06:52:11.547Z,6.93
2018-07-10T06:54:51.706Z,7.00
2018-07-10T06:57:25.026Z,6.80
2018-07-10T06:59:53.950Z,6.80
2018-07-10T07:02:23.430Z,7.03
2018-07-10T07:04:52.077Z,7.70
2018-07-10T07:07:20.601Z,8.77
2018-07-10T07:09:49.116Z,7.00
2018-07-10T07:12:17.695Z,7.70
2018-07-10T07:14:46.423Z,7.60
2018-07-10T07:17:15.244Z,8.03
2018-07-10T07:19:43.792Z,8.37
2018-07-10T07:22:12.386Z,9.07
2018-07-10T07:24:41.852Z,7.63
2018-07-10T07:27:11.638Z,7.93
2018-07-10T07:29:40.193Z,7.90
2018-07-10T07:32:08.755Z,8.47
2018-07-10T07:34:37.312Z,8.20
2018-07-10T07:37:05.890Z,8.00
2018-07-10T07:39:35.418Z,8.50
2018-07-10T07:42:04.271Z,8.23
2018-07-10T07:44:32.815Z,8.60
2018-07-10T07:47:01.471Z,7.63
2018-07-10T07:49:30.875Z,7.73
2018-07-10T07:51:59.906Z,8.87
2018-07-10T07:54:29.761Z,7.50
2018-07-10T07:56:59.087Z,8.67
2018-07-10T07:59:27.584Z,8.30
2018-07-10T08:01:56.208Z,11.23
2018-07-10T08:04:25.058Z,10.10
2018-07-10T08:06:53.646Z,9.77
2018-07-10T08:09:22.703Z,10.37
2018-07-10T08:11:51.370Z,8.47
2018-07-10T08:14:19.944Z,10.30
2018-07-10T08:16:48.523Z,9.37
2018-07-10T08:19:17.887Z,10.07
2018-07-10T08:21:48.510Z,11.70
2018-07-10T08:24:17.793Z,10.30
2018-07-10T08:26:46.914Z,10.20
2018-07-10T08:29:15.461Z,10.03
2018-07-10T08:31:46.206Z,9.80
2018-07-10T08:34:15.170Z,9.57
2018-07-10T08:36:43.724Z,7.67
2018-07-10T08:39:12.362Z,8.77
2018-07-10T08:41:46.787Z,8.73
2018-07-10T08:44:17.510Z,9.00
2018-07-10T08:46:52.277Z,8.73
2018-07-10T08:49:21.185Z,10.93
2018-07-10T08:51:51.731Z,11.20
2018-07-10T08:54:22.940Z,11.10
2018-07-10T08:56:52.739Z,11.03
2018-07-10T08:59:22.376Z,11.90
2018-07-10T09:01:51.238Z,10.83
2018-07-10T09:04:20.566Z,11.10
2018-07-10T09:06:49.370Z,10.93
2018-07-10T09:09:18.463Z,9.70
2018-07-10T09:11:47.045Z,10.30
2018-07-10T09:14:16.702Z,9.00
2018-07-10T09:16:45.926Z,10.00
2018-07-10T09:19:17.146Z,9.50
2018-07-10T09:21:51.949Z,8.40
2018-07-10T09:24:21.513Z,8.70
2018-07-10T09:26:52.219Z,9.67
2018-07-10T09:29:22.136Z,9.83
2018-07-10T09:31:52.079Z,9.30
2018-07-10T09:34:20.630Z,9.70
2018-07-10T09:36:49.597Z,9.30
2018-07-10T09:39:18.181Z,8.60
2018-07-10T09:41:46.785Z,8.73
2018-07-10T09:44:15.391Z,8.30
2018-07-10T09:46:44.367Z,6.80
2018-07-10T09:49:12.938Z,9.83
2018-07-10T09:51:42.022Z,10.47
2018-07-10T09:54:11.077Z,11.00
2018-07-10T09:56:39.696Z,9.57
2018-07-10T09:59:08.248Z,10.00
2018-07-10T10:01:36.909Z,9.30
2018-07-10T10:04:05.942Z,9.10
2018-07-10T10:06:35.230Z,8.73
2018-07-10T10:09:04.650Z,8.57
2018-07-10T10:11:33.192Z,7.70
2018-07-10T10:14:01.998Z,7.60
2018-07-10T10:16:30.541Z,8.17
2018-07-10T10:18:59.997Z,8.90
2018-07-10T10:21:29.529Z,8.90
2018-07-10T10:23:59.222Z,9.20
2018-07-10T10:26:28.449Z,8.97
2018-07-10T10:28:57.013Z,9.40
2018-07-10T10:31:25.705Z,9.33
2018-07-10T10:33:54.249Z,8.30
2018-07-10T10:36:22.762Z,8.80
2018-07-10T10:38:51.520Z,7.50
2018-07-10T10:41:20.112Z,6.60
2018-07-10T10:43:49.558Z,7.70
2018-07-10T10:46:21.106Z,6.27
2018-07-10T10:48:50.155Z,6.10
2018-07-10T10:51:21.961Z,8.50
2018-07-10T10:53:50.947Z,6.37
2018-07-10T10:56:19.601Z,7.43
2018-07-10T10:58:48.614Z,6.57
2018-07-10T11:01:17.222Z,7.10
2018-07-10T11:03:45.746Z,6.07
2018-07-10T11:06:14.289Z,5.20
2018-07-10T11:08:43.030Z,5.10
2018-07-10T11:11:12.027Z,6.60
2018-07-10T11:13:41.224Z,6.80
2018-07-10T11:16:10.059Z,7.50
2018-07-10T11:18:42.926Z,8.23
2018-07-10T11:21:24.833Z,8.10
2018-07-10T11:23:55.690Z,7.50
2018-07-10T11:26:56.229Z,6.17
2018-07-10T11:29:24.833Z,6.83
2018-07-10T11:31:53.394Z,8.30
2018-07-10T11:34:21.959Z,8.10
2018-07-10T11:36:50.882Z,7.70
2018-07-10T11:39:19.574Z,9.33
2018-07-10T11:41:51.554Z,7.70
2018-07-10T11:44:20.113Z,7.47
2018-07-10T11:46:49.168Z,4.70
2018-07-10T11:49:17.730Z,6.53
2018-07-10T11:51:46.414Z,5.33
2018-07-10T11:54:15.014Z,5.20
2018-07-10T11:56:43.599Z,5.00
2018-07-10T11:59:12.218Z,5.30
2018-07-10T12:01:40.865Z,5.27
2018-07-10T12:04:09.491Z,4.70
2018-07-10T12:06:45.898Z,4.90
2018-07-10T12:09:14.465Z,4.77
2018-07-10T12:11:43.391Z,4.80
2018-07-10T12:14:12.289Z,4.47
2018-07-10T12:16:40.834Z,4.77
2018-07-10T12:19:09.390Z,4.53
2018-07-10T12:21:37.958Z,3.90
2018-07-10T12:24:06.960Z,3.97
2018-07-10T12:26:36.953Z,3.17
2018-07-10T12:29:05.722Z,4.30
2018-07-10T12:31:34.396Z,3.20
2018-07-10T12:34:02.957Z,3.63
2018-07-10T12:36:31.494Z,2.90
2018-07-10T12:39:00.140Z,3.20
2018-07-10T12:41:28.690Z,3.53
2018-07-10T12:43:57.257Z,3.50
2018-07-10T12:46:25.812Z,3.57
2018-07-10T12:48:55.062Z,4.20
2018-07-10T12:51:23.678Z,2.60
2018-07-10T12:53:52.201Z,3.60
2018-07-10T12:56:20.784Z,4.03
2018-07-10T12:58:49.984Z,3.80
2018-07-10T13:01:18.644Z,4.43
2018-07-10T13:03:47.958Z,4.10
2018-07-10T13:06:16.652Z,4.40
2018-07-10T13:08:45.190Z,4.17
2018-07-10T13:11:13.730Z,3.40
2018-07-10T13:13:42.340Z,3.53
2018-07-10T13:16:10.970Z,2.70
2018-07-10T13:18:41.508Z,3.20
2018-07-10T13:21:10.049Z,2.53
2018-07-10T13:23:38.584Z,2.90
2018-07-10T13:26:07.151Z,2.77
2018-07-10T13:28:35.777Z,3.00
2018-07-10T13:31:04.317Z,3.50
2018-07-10T13:33:32.937Z,2.67
2018-07-10T13:36:01.475Z,2.60
2018-07-10T13:38:30.013Z,2.27
2018-07-10T13:41:00.790Z,2.53
2018-07-10T13:43:29.377Z,3.27
2018-07-10T13:45:57.938Z,2.80
2018-07-10T13:48:26.607Z,1.97
2018-07-10T13:50:55.484Z,2.83
2018-07-10T13:53:24.225Z,2.60
2018-07-10T13:55:52.916Z,2.60
2018-07-10T13:58:24.900Z,2.50
2018-07-10T14:01:07.798Z,1.90
2018-07-10T14:03:36.982Z,1.60
2018-07-10T14:06:06.069Z,1.83
2018-07-10T14:08:34.744Z,2.23
2018-07-10T14:11:03.797Z,2.00
2018-07-10T14:13:32.354Z,2.10
2018-07-10T14:16:00.954Z,1.57
2018-07-10T14:18:29.844Z,1.87
2018-07-10T14:21:03.245Z,1.50
2018-07-10T14:23:31.790Z,2.07
2018-07-10T14:26:00.344Z,2.30
2018-07-10T14:28:30.259Z,1.40
2018-07-10T14:30:58.782Z,2.73
2018-07-10T14:33:27.314Z,2.33
2018-07-10T14:35:56.090Z,2.17
2018-07-10T14:38:28.986Z,1.93
2018-07-10T14:40:58.908Z,3.07
2018-07-10T14:43:29.363Z,2.67
2018-07-10T14:46:09.797Z,3.10
2018-07-10T14:48:45.047Z,3.30
2018-07-10T14:51:16.270Z,3.97
2018-07-10T14:53:44.837Z,4.17
2018-07-10T14:56:13.407Z,4.20
2018-07-10T14:58:41.975Z,4.40
2018-07-10T15:01:10.519Z,3.77
2018-07-10T15:03:38.997Z,4.60
2018-07-10T15:06:07.656Z,5.63
2018-07-10T15:08:36.163Z,4.87
2018-07-10T15:11:04.726Z,4.20
2018-07-10T15:13:44.555Z,4.60
2018-07-10T15:16:13.166Z,4.40
2018-07-10T15:18:43.899Z,4.57
2018-07-10T15:21:12.490Z,5.70
2018-07-10T15:23:41.188Z,6.07
2018-07-10T15:26:09.686Z,4.57
2018-07-10T15:28:38.201Z,4.30
2018-07-10T15:31:06.786Z,5.20
2018-07-10T15:33:35.337Z,5.07
2018-07-10T15:36:03.893Z,5.67
2018-07-10T15:38:33.189Z,5.30
2018-07-10T15:41:01.759Z,4.53
2018-07-10T15:43:30.438Z,4.50
2018-07-10T15:45:59.006Z,5.20
2018-07-10T15:48:27.564Z,4.00
2018-07-10T15:50:56.396Z,4.67
2018-07-10T15:53:24.894Z,3.70
2018-07-10T15:55:53.416Z,3.43
2018-07-10T15:58:22.326Z,4.40
2018-07-10T16:00:50.978Z,4.33
2018-07-10T16:03:19.502Z,4.50
2018-07-10T16:05:48.073Z,4.10
2018-07-10T16:08:19.856Z,4.10
2018-07-10T16:10:52.070Z,3.77
2018-07-10T16:13:22.096Z,4.80
2018-07-10T16:15:54.814Z,4.17
2018-07-10T16:18:24.941Z,3.90
2018-07-10T16:20:57.020Z,3.73
2018-07-10T16:23:25.657Z,4.13
2018-07-10T16:26:04.854Z,3.53
2018-07-10T16:28:34.539Z,3.50
2018-07-10T16:31:03.165Z,3.70
2018-07-10T16:33:33.670Z,4.10
2018-07-10T16:36:03.850Z,3.13
2018-07-10T16:38:33.444Z,3.00
2018-07-10T16:41:07.341Z,2.80
2018-07-10T16:43:35.877Z,3.10
2018-07-10T16:46:05.093Z,2.43
2018-07-10T16:48:42.756Z,2.10
2018-07-10T16:51:29.670Z,2.10
2018-07-10T16:54:01.703Z,1.97
2018-07-10T16:56:30.673Z,2.70
2018-07-10T16:58:59.741Z,2.43
2018-07-10T17:01:29.327Z,1.93
2018-07-10T17:04:00.561Z,2.47
2018-07-10T17:06:29.106Z,2.73
2018-07-10T17:08:57.709Z,2.80
2018-07-10T17:11:27.422Z,2.73
2018-07-10T17:13:55.998Z,2.13
2018-07-10T17:16:29.750Z,2.77
2018-07-10T17:18:58.460Z,2.17
2018-07-10T17:21:28.034Z,2.03
2018-07-10T17:24:00.060Z,2.63
2018-07-10T17:26:30.404Z,2.47
2018-07-10T17:29:02.245Z,2.50
2018-07-10T17:31:30.921Z,2.80
2018-07-10T17:33:59.902Z,2.73
2018-07-10T17:36:28.542Z,1.73
2018-07-10T17:38:57.145Z,2.13
2018-07-10T17:41:27.338Z,2.90
2018-07-10T17:43:57.000Z,3.57
2018-07-10T17:46:25.546Z,2.23
2018-07-10T17:48:54.086Z,2.40
2018-07-10T17:51:22.625Z,2.10
2018-07-10T17:53:51.316Z,2.23
2018-07-10T17:56:19.878Z,3.00
2018-07-10T17:58:48.426Z,2.10
2018-07-10T18:01:17.584Z,1.90
2018-07-10T18:03:46.463Z,2.47
2018-07-10T18:06:15.706Z,1.90
2018-07-10T18:08:44.988Z,2.23
2018-07-10T18:11:14.577Z,2.13
2018-07-10T18:13:43.103Z,2.27
2018-07-10T18:16:11.865Z,2.10
2018-07-10T18:18:40.477Z,2.43
2018-07-10T18:21:09.095Z,2.43
2018-07-10T18:23:37.687Z,2.60
2018-07-10T18:26:06.214Z,2.27
2018-07-10T18:28:35.193Z,2.00
2018-07-10T18:31:03.744Z,3.07
2018-07-10T18:33:32.346Z,2.93
2018-07-10T18:36:00.859Z,2.87
2018-07-10T18:38:30.512Z,2.70
2018-07-10T18:40:59.073Z,2.30
2018-07-10T18:43:27.647Z,3.97
2018-07-10T18:45:56.191Z,3.37
2018-07-10T18:48:26.835Z,3.03
2018-07-10T18:50:56.126Z,2.90
2018-07-10T18:53:24.727Z,3.13
2018-07-10T18:55:54.068Z,2.70
2018-07-10T18:58:32.204Z,2.40
2018-07-10T19:01:07.658Z,2.83
2018-07-10T19:03:36.771Z,3.33
2018-07-10T19:06:11.853Z,2.30
2018-07-10T19:08:42.780Z,2.67
2018-07-10T19:11:14.563Z,2.70
2018-07-10T19:13:43.603Z,2.93
2018-07-10T19:16:12.230Z,2.87
2018-07-10T19:18:40.873Z,2.43
2018-07-10T19:21:32.647Z,2.90
2018-07-10T19:24:04.438Z,2.73
2018-07-10T19:26:34.073Z,2.40
2018-07-10T19:29:16.238Z,2.60
2018-07-10T19:31:44.884Z,1.83
2018-07-10T19:34:13.430Z,3.00
2018-07-10T19:36:41.976Z,3.23
2018-07-10T19:39:10.784Z,2.77
2018-07-10T19:41:39.336Z,3.10
2018-07-10T19:44:07.883Z,2.43
2018-07-10T19:46:36.966Z,2.63
2018-07-10T19:49:10.190Z,3.73
2018-07-10T19:51:41.546Z,2.33
2018-07-10T19:54:14.315Z,2.90
2018-07-10T19:56:43.253Z,3.10
2018-07-10T19:59:13.887Z,2.57
2018-07-10T20:01:52.349Z,2.83
2018-07-10T20:04:28.048Z,3.23
2018-07-10T20:08:07.473Z,2.80
2018-07-10T20:10:38.705Z,2.33
2018-07-10T20:13:18.651Z,2.93
2018-07-10T20:15:55.903Z,2.90
2018-07-10T20:18:40.248Z,2.70
2018-07-10T20:21:16.225Z,3.13
2018-07-10T20:23:55.447Z,4.13
2018-07-10T20:26:42.667Z,3.33
2018-07-10T20:30:12.122Z,3.40
2018-07-10T20:32:47.938Z,3.27
2018-07-10T20:35:19.497Z,3.40
2018-07-10T20:37:49.477Z,3.00
2018-07-10T20:40:33.330Z,3.40
2018-07-10T20:43:05.536Z,3.80
2018-07-10T20:45:34.618Z,3.27
2018-07-10T20:48:03.129Z,2.80
2018-07-10T20:50:41.774Z,3.40
2018-07-10T20:53:21.294Z,3.30
2018-07-10T20:55:58.443Z,3.80
2018-07-10T20:58:33.082Z,4.37
2018-07-10T21:01:08.856Z,3.90
2018-07-10T21:04:00.214Z,3.30
2018-07-10T21:06:38.223Z,3.70
2018-07-10T21:09:15.683Z,3.80
2018-07-10T21:11:54.966Z,3.70
2018-07-10T21:15:32.730Z,4.17
2018-07-10T21:18:12.140Z,3.47
2018-07-10T21:20:52.932Z,3.63
2018-07-10T21:23:32.441Z,3.37
2018-07-10T21:26:12.587Z,3.97
2018-07-10T21:28:48.066Z,3.97
2018-07-10T21:32:24.730Z,3.67
2018-07-10T21:34:55.136Z,3.70
2018-07-10T21:39:37.285Z,3.73
2018-07-10T21:42:18.770Z,3.70
2018-07-10T21:44:52.929Z,3.33
2018-07-10T21:47:47.386Z,3.80
2018-07-10T21:50:24.097Z,3.70
2018-07-10T21:52:52.955Z,3.50
2018-07-10T21:55:21.468Z,4.10
2018-07-10T21:57:50.103Z,3.97
2018-07-10T22:00:18.654Z,4.53
2018-07-10T22:02:47.364Z,3.60
2018-07-10T22:05:16.615Z,4.07
2018-07-10T22:07:45.177Z,3.37
2018-07-10T22:10:20.574Z,4.10
2018-07-10T22:12:49.627Z,3.73
2018-07-10T22:15:18.147Z,4.00
2018-07-10T22:17:47.526Z,3.73
2018-07-10T22:20:19.299Z,3.80
2018-07-10T22:22:48.479Z,4.47
2018-07-10T22:25:17.165Z,4.10
2018-07-10T22:27:45.786Z,4.70
2018-07-10T22:30:21.624Z,5.10
2018-07-10T22:32:57.636Z,4.07
2018-07-10T22:35:26.201Z,3.87
2018-07-10T22:37:55.151Z,5.10
2018-07-10T22:40:23.712Z,5.80
2018-07-10T22:42:52.361Z,4.57
2018-07-10T22:45:21.024Z,3.60
2018-07-10T22:47:50.603Z,4.57
2018-07-10T22:50:21.590Z,4.03
2018-07-10T22:52:56.962Z,4.93
2018-07-10T22:55:27.156Z,5.57
2018-07-10T22:58:03.405Z,4.40
2018-07-10T23:00:35.223Z,4.87
2018-07-10T23:03:22.318Z,5.43
2018-07-10T23:05:51.934Z,5.00
2018-07-10T23:08:30.496Z,4.40
2018-07-10T23:11:00.367Z,4.37
2018-07-10T23:13:29.151Z,5.60
2018-07-10T23:15:57.947Z,4.60
2018-07-10T23:18:26.499Z,5.50
2018-07-10T23:20:55.062Z,5.37
2018-07-10T23:23:24.166Z,5.10
2018-07-10T23:25:52.720Z,6.03
2018-07-10T23:28:21.862Z,5.50
2018-07-10T23:30:50.389Z,5.60
2018-07-10T23:33:20.089Z,5.20
2018-07-10T23:35:53.710Z,5.57
2018-07-10T23:38:39.214Z,5.60
2018-07-10T23:41:14.057Z,5.10
2018-07-10T23:43:45.487Z,4.80
2018-07-10T23:46:21.959Z,5.23
2018-07-10T23:48:53.205Z,5.10
2018-07-10T23:51:21.793Z,5.93
2018-07-10T23:53:53.166Z,6.47
2018-07-10T23:56:22.257Z,5.80
2018-07-10T23:58:51.225Z,5.93
